Aeroporto :
LOGIN :

Iscrizione | Disclaimer

   EN    FR    IT 

 










Sommario :    VFR   VFR Marginale   IFR   IFR Intensivo   IFR Molto Intensivo
Visibilità : 
Base nubi : 
>= 8 km
>= 3000ft
5 / 8 km
1000 / 3000 ft
1500m / 5 km
500 / 1000 ft
800 / 1500m
200 / 500 ft
< 800m
< 200 ft
Simboli :   Temporali  Nebbia  Neve Forte  Precipitazioni Forti  Vento > 20 kt
SIGMETs :   Varie  Temporali  Ghiacco  Turbolenza  Onda orograficha  Ceneri Vulcaniche






- Altitudine del aeroporto : 288 ft
- Codice IATA : BZZ


EGVN - RAF Brize Norton

ULTIMO METAR :
  • 191850Z 22007KT 9999 SCT020 BKN030 09/06 Q1014 TEMPO FEW020 BKN030 RMK WHT TEMPO BLU

METARs OBSOLETI :
  • 191820Z 22009KT 9999 FEW015 BKN025 09/07 Q1014 TEMPO SCT020
  • 191750Z 21008KT 9999 FEW013 SCT015 BKN030 09/07 Q1014 TEMPO SCT014 RMK WHT TEMPO GEN
  • 191720Z 21010KT 9999 FEW015 SCT020 BKN030 08/07 Q1014 TEMPO FEW020 SCT025 RMK WHT TEMPO BLU
  • 191650Z 20011KT 9999 6000SW FEW008 SCT015 BKN030 08/07 Q1015 TEMPO 9999 FEW015 SCT030 RMK WHT TEMPO BLU
  • 191645Z 20010KT 8000 -RA SCT012 BKN015 08/07 Q1015 BECMG FEW014 SCT020 RMK GRN BECMG WHT
  • 191620Z 21007KT 6000 -RA FEW014 BKN015 BKN030 08/06 Q1015 TEMPO SCT014 RMK WHT TEMPO GRN

TAF TAF EGVN
Valido dal 19 a 18 ore il 20 a 18 ore UTC


191644Z 1918/2018 22012KT 9999 BKN025
TEMPO 1918/2009 BKN015
PROB30
TEMPO 1918/2009 BKN012
BECMG 2004/2007 21015G25KT
TEMPO 2009/2013 7000 RA BKN010
PROB30
TEMPO 2010/2012 26025G35KT 3000 +SHRA
BECMG 2013/2015 27015KT
PROB30
TEMPO 2013/2017 6000 SHRA SCT015



MetMap, La meteo Aeronautica in un colpo d'occhio ! - Copyright ORBIFLY Dicembre 2007 - Disclaimer

ORBIFLY MET'MAP TEAM :

Programmazione e sviluppo : Alexandra Zaïnal
Concezione : Baudouin d'Aumeries
Aiuto per la programmazione : Marc-Olivier Méhu
Supporto tecnico e logistico : Manuel Goepfert
Aiuto per la traduzione : Arnaldo La Scala

Contatto : metmap@orbifly.com




FONTI E CREDITI :

   NOAA